createdAt,value
2022-08-10T00:01:52.575Z,16.13
2022-08-10T00:04:24.468Z,16.15
2022-08-10T00:06:54.816Z,16.08
2022-08-10T00:09:22.532Z,16.02
2022-08-10T00:11:49.192Z,16.04
2022-08-10T00:14:16.077Z,15.95
2022-08-10T00:16:42.786Z,15.94
2022-08-10T00:19:09.834Z,15.90
2022-08-10T00:21:36.984Z,15.87
2022-08-10T00:24:03.981Z,15.81
2022-08-10T00:27:51.898Z,15.77
2022-08-10T00:29:17.199Z,15.81
2022-08-10T00:31:58.099Z,15.74
2022-08-10T00:34:30.101Z,15.66
2022-08-10T00:36:57.255Z,15.54
2022-08-10T00:39:23.983Z,15.50
2022-08-10T00:42:02.161Z,15.46
2022-08-10T00:44:36.479Z,15.41
2022-08-10T00:47:03.293Z,15.47
2022-08-10T00:49:29.961Z,15.43
2022-08-10T00:51:56.439Z,15.39
2022-08-10T00:54:24.351Z,15.30
2022-08-10T00:57:17.658Z,15.28
2022-08-10T00:59:58.668Z,15.21
2022-08-10T01:02:25.857Z,15.22
2022-08-10T01:04:59.317Z,15.05
2022-08-10T01:07:49.201Z,15.12
2022-08-10T01:10:48.884Z,15.09
2022-08-10T01:13:48.024Z,15.08
2022-08-10T01:16:29.115Z,15.07
2022-08-10T01:19:11.892Z,15.04
2022-08-10T01:22:00.044Z,15.00
2022-08-10T01:24:51.400Z,14.97
2022-08-10T01:27:36.529Z,14.92
2022-08-10T01:30:04.957Z,14.92
2022-08-10T01:32:36.364Z,14.91
2022-08-10T01:35:13.580Z,14.89
2022-08-10T01:37:51.787Z,14.81
2022-08-10T01:40:25.682Z,14.82
2022-08-10T01:42:54.306Z,14.83
2022-08-10T01:45:23.913Z,14.75
2022-08-10T01:48:16.792Z,14.71
2022-08-10T01:50:59.292Z,14.70
2022-08-10T01:53:40.914Z,14.69
2022-08-10T01:56:09.564Z,14.64
2022-08-10T01:58:38.402Z,14.59
2022-08-10T02:01:09.604Z,14.60
2022-08-10T02:04:01.221Z,14.57
2022-08-10T02:06:30.853Z,14.51
2022-08-10T02:09:06.321Z,14.53
2022-08-10T02:12:06.675Z,14.44
2022-08-10T02:14:23.686Z,14.45
2022-08-10T02:16:52.427Z,14.41
2022-08-10T02:19:23.534Z,14.39
2022-08-10T02:22:35.239Z,14.36
2022-08-10T02:24:41.004Z,14.35
2022-08-10T02:27:08.122Z,14.37
2022-08-10T02:29:36.334Z,14.33
2022-08-10T02:32:04.488Z,14.31
2022-08-10T02:34:31.884Z,14.34
2022-08-10T02:37:01.261Z,14.31
2022-08-10T02:39:28.590Z,14.30
2022-08-10T02:45:02.779Z,14.22
2022-08-10T02:45:20.853Z,14.24
2022-08-10T02:47:52.817Z,14.18
2022-08-10T02:50:26.800Z,14.15
2022-08-10T02:53:54.453Z,14.15
2022-08-10T02:56:15.068Z,14.12
2022-08-10T02:58:45.782Z,14.05
2022-08-10T03:01:16.254Z,14.04
2022-08-10T03:03:59.333Z,14.00
2022-08-10T03:06:34.000Z,13.97
2022-08-10T03:09:02.765Z,13.92
2022-08-10T03:12:37.426Z,13.93
2022-08-10T03:14:19.949Z,13.84
2022-08-10T03:16:47.616Z,13.84
2022-08-10T03:20:34.848Z,13.74
2022-08-10T03:22:04.168Z,13.79
2022-08-10T03:24:33.697Z,13.70
2022-08-10T03:27:01.101Z,13.67
2022-08-10T03:29:28.735Z,13.68
2022-08-10T03:31:56.888Z,13.57
2022-08-10T03:34:32.984Z,13.61
2022-08-10T03:37:01.017Z,13.58
2022-08-10T03:39:27.963Z,13.56
2022-08-10T03:41:57.805Z,13.54
2022-08-10T03:44:28.590Z,13.57
2022-08-10T03:46:58.058Z,13.54
2022-08-10T03:49:26.905Z,13.55
2022-08-10T03:51:54.084Z,13.52
2022-08-10T03:54:21.266Z,13.58
2022-08-10T03:56:48.180Z,13.59
2022-08-10T03:59:16.732Z,13.58
2022-08-10T04:02:43.556Z,13.58
2022-08-10T04:04:31.022Z,13.66
2022-08-10T04:06:59.563Z,13.66
2022-08-10T04:09:43.144Z,13.67
2022-08-10T04:12:19.431Z,13.63
2022-08-10T04:14:50.106Z,13.62
2022-08-10T04:17:56.273Z,13.68
2022-08-10T04:20:25.540Z,13.74
2022-08-10T04:23:00.394Z,13.76
2022-08-10T04:25:27.419Z,13.75
2022-08-10T04:27:55.244Z,13.84
2022-08-10T04:30:22.476Z,13.83
2022-08-10T04:32:53.748Z,14.04
2022-08-10T04:35:20.964Z,14.51
2022-08-10T04:37:49.517Z,15.53
2022-08-10T04:40:28.279Z,16.31
2022-08-10T04:43:02.375Z,18.00
2022-08-10T04:45:48.931Z,19.12
2022-08-10T04:48:41.351Z,20.52
2022-08-10T04:51:20.716Z,20.75
2022-08-10T04:54:06.125Z,21.34
2022-08-10T04:56:35.871Z,21.75
2022-08-10T04:59:02.778Z,21.87
2022-08-10T05:02:22.508Z,22.11
2022-08-10T05:04:34.627Z,22.99
2022-08-10T05:07:04.340Z,23.02
2022-08-10T05:09:30.922Z,23.51
2022-08-10T05:11:57.496Z,23.34
2022-08-10T05:14:23.979Z,22.79
2022-08-10T05:16:50.493Z,23.27
2022-08-10T05:19:17.094Z,23.94
2022-08-10T05:21:59.837Z,23.97
2022-08-10T05:24:31.471Z,23.51
2022-08-10T05:26:58.544Z,24.77
2022-08-10T05:29:37.349Z,24.86
2022-08-10T05:32:04.286Z,25.17
2022-08-10T05:34:30.997Z,24.28
2022-08-10T05:36:58.471Z,25.73
2022-08-10T05:39:30.204Z,25.47
2022-08-10T05:42:01.501Z,26.57
2022-08-10T05:44:29.483Z,26.32
2022-08-10T05:46:56.560Z,27.29
2022-08-10T05:49:23.119Z,25.88
2022-08-10T05:51:49.983Z,25.57
2022-08-10T05:54:17.219Z,27.23
2022-08-10T05:56:57.071Z,26.60
2022-08-10T06:00:10.979Z,27.38
2022-08-10T06:02:43.979Z,25.99
2022-08-10T06:05:13.992Z,28.61
2022-08-10T06:07:45.061Z,27.99
2022-08-10T06:10:13.722Z,27.97
2022-08-10T06:12:55.233Z,28.79
2022-08-10T06:15:50.843Z,28.05
2022-08-10T06:18:13.545Z,26.95
2022-08-10T06:20:41.081Z,26.13
2022-08-10T06:23:07.949Z,27.18
2022-08-10T06:28:23.182Z,27.42
2022-08-10T06:30:52.551Z,28.18
2022-08-10T06:33:21.213Z,26.79
2022-08-10T06:35:52.423Z,26.98
2022-08-10T06:38:21.460Z,26.23
2022-08-10T06:40:48.988Z,26.43
2022-08-10T06:43:20.378Z,25.55
2022-08-10T06:46:07.711Z,25.09
2022-08-10T06:48:46.851Z,24.96
2022-08-10T06:51:34.737Z,25.83
2022-08-10T06:54:07.336Z,25.60
2022-08-10T06:56:46.882Z,25.38
2022-08-10T06:59:30.939Z,25.35
2022-08-10T07:02:04.681Z,25.53
2022-08-10T07:04:38.100Z,25.95
2022-08-10T07:07:06.471Z,25.50
2022-08-10T07:09:37.671Z,25.03
2022-08-10T07:12:07.935Z,24.75
2022-08-10T07:14:41.383Z,24.92
2022-08-10T07:17:16.095Z,24.65
2022-08-10T07:19:49.563Z,24.60
2022-08-10T07:23:27.034Z,24.70
2022-08-10T07:25:12.568Z,24.62
2022-08-10T07:27:59.932Z,25.18
2022-08-10T07:30:31.380Z,24.70
2022-08-10T07:33:00.460Z,24.97
2022-08-10T07:35:34.652Z,24.90
2022-08-10T07:38:07.404Z,24.61
2022-08-10T07:40:35.356Z,24.82
2022-08-10T07:43:02.501Z,24.72
2022-08-10T07:45:33.473Z,25.19
2022-08-10T07:48:07.961Z,24.86
2022-08-10T07:50:38.980Z,25.58
2022-08-10T07:53:10.127Z,25.32
2022-08-10T07:56:07.607Z,25.08
2022-08-10T07:58:31.843Z,25.80
2022-08-10T08:01:00.197Z,24.94
2022-08-10T08:03:29.412Z,24.58
2022-08-10T08:06:02.985Z,25.09
2022-08-10T08:08:33.384Z,25.23
2022-08-10T08:11:00.786Z,24.92
2022-08-10T08:13:29.618Z,25.27
2022-08-10T08:16:18.686Z,25.71
2022-08-10T08:19:03.750Z,25.91
2022-08-10T08:24:05.630Z,25.78
2022-08-10T08:24:31.825Z,25.91
2022-08-10T08:27:02.471Z,24.99
2022-08-10T08:29:33.271Z,25.50
2022-08-10T08:32:03.239Z,25.21
2022-08-10T08:34:36.559Z,24.97
2022-08-10T08:37:04.811Z,25.12
2022-08-10T08:39:33.323Z,25.23
2022-08-10T08:42:24.297Z,25.44
2022-08-10T08:45:15.813Z,25.09
2022-08-10T08:48:04.148Z,25.28
2022-08-10T08:50:57.565Z,25.74
2022-08-10T08:54:01.629Z,26.16
2022-08-10T08:56:28.523Z,25.95
2022-08-10T08:59:37.178Z,26.10
2022-08-10T09:02:54.599Z,26.17
2022-08-10T09:05:58.692Z,25.71
2022-08-10T09:08:53.635Z,25.07
2022-08-10T09:11:50.822Z,25.77
2022-08-10T09:14:26.178Z,26.53
2022-08-10T09:17:00.883Z,26.03
2022-08-10T09:19:43.465Z,25.26
2022-08-10T09:22:25.544Z,25.80
2022-08-10T09:24:59.260Z,25.92
2022-08-10T09:27:49.224Z,26.39
2022-08-10T09:30:29.270Z,26.84
2022-08-10T09:36:22.104Z,26.90
2022-08-10T09:36:31.983Z,26.49
2022-08-10T09:40:48.514Z,26.37
2022-08-10T09:42:32.744Z,26.21
2022-08-10T09:45:23.787Z,25.98
2022-08-10T09:48:02.682Z,26.78
2022-08-10T09:50:59.004Z,26.34
2022-08-10T09:53:41.414Z,26.09
2022-08-10T09:56:45.653Z,25.77
2022-08-10T10:00:01.484Z,26.54
2022-08-10T10:02:27.651Z,26.76
2022-08-10T10:05:06.777Z,27.50
2022-08-10T10:07:36.582Z,26.76
2022-08-10T10:10:13.199Z,26.26
2022-08-10T10:13:10.130Z,26.89
2022-08-10T10:16:06.007Z,27.40
2022-08-10T10:18:48.229Z,27.18
2022-08-10T10:21:55.284Z,27.43
2022-08-10T10:24:35.078Z,27.34
2022-08-10T10:27:06.394Z,27.28
2022-08-10T10:30:01.275Z,27.66
2022-08-10T10:32:48.884Z,27.85
2022-08-10T10:35:21.573Z,27.40
2022-08-10T10:38:01.713Z,28.34
2022-08-10T10:40:38.664Z,27.70
2022-08-10T10:43:25.576Z,27.92
2022-08-10T10:46:01.844Z,28.42
2022-08-10T10:48:59.249Z,28.05
2022-08-10T10:51:30.826Z,27.33
2022-08-10T10:54:35.958Z,27.30
2022-08-10T10:57:58.193Z,27.06
2022-08-10T11:00:27.787Z,27.11
2022-08-10T11:03:24.070Z,27.67
2022-08-10T11:06:14.464Z,28.59
2022-08-10T11:08:51.332Z,28.46
2022-08-10T11:12:01.624Z,28.49
2022-08-10T11:14:31.353Z,28.12
2022-08-10T11:17:27.848Z,28.54
2022-08-10T11:20:13.704Z,29.15
2022-08-10T11:22:52.922Z,27.89
2022-08-10T11:25:29.374Z,28.63
2022-08-10T11:28:19.513Z,28.85
2022-08-10T11:30:52.798Z,29.27
2022-08-10T11:34:03.913Z,29.25
2022-08-10T11:36:46.996Z,29.16
2022-08-10T11:39:48.671Z,28.94
2022-08-10T11:42:35.766Z,28.40
2022-08-10T11:45:12.152Z,28.85
2022-08-10T11:47:47.004Z,29.05
2022-08-10T11:50:21.293Z,28.65
2022-08-10T11:53:06.784Z,29.20
2022-08-10T11:55:34.701Z,28.22
2022-08-10T11:58:26.778Z,28.93
2022-08-10T12:00:56.571Z,29.03
2022-08-10T12:03:25.290Z,28.88
2022-08-10T12:05:55.412Z,29.28
2022-08-10T12:10:05.958Z,29.85
2022-08-10T12:11:25.135Z,29.99
2022-08-10T12:14:21.878Z,29.25
2022-08-10T12:17:00.266Z,28.85
2022-08-10T12:20:01.959Z,28.48
2022-08-10T12:22:31.661Z,28.25
2022-08-10T12:25:04.346Z,28.12
2022-08-10T12:27:44.964Z,28.64
2022-08-10T12:30:15.931Z,29.19
2022-08-10T12:33:03.058Z,28.86
2022-08-10T12:35:41.995Z,28.92
2022-08-10T12:38:31.093Z,28.55
2022-08-10T12:41:00.566Z,27.91
2022-08-10T12:44:07.423Z,27.05
2022-08-10T12:46:27.413Z,26.81
2022-08-10T12:49:17.780Z,28.19
2022-08-10T12:52:01.115Z,28.05
2022-08-10T12:54:32.369Z,28.65
2022-08-10T12:57:04.628Z,27.56
2022-08-10T12:59:32.318Z,27.26
2022-08-10T13:02:07.011Z,27.00
2022-08-10T13:04:40.426Z,27.09
2022-08-10T13:07:09.171Z,27.68
2022-08-10T13:09:55.422Z,29.19
2022-08-10T13:12:44.501Z,28.78
2022-08-10T13:15:25.381Z,28.42
2022-08-10T13:18:18.378Z,29.15
2022-08-10T13:20:52.112Z,29.05
2022-08-10T13:23:25.072Z,29.13
2022-08-10T13:25:54.157Z,29.65
2022-08-10T13:28:37.220Z,29.66
2022-08-10T13:31:16.320Z,29.69
2022-08-10T13:34:40.731Z,29.79
2022-08-10T13:36:47.499Z,29.85
2022-08-10T13:39:17.211Z,30.00
2022-08-10T13:41:45.911Z,29.78
2022-08-10T13:44:17.866Z,29.56
2022-08-10T13:46:52.322Z,30.60
2022-08-10T13:49:21.488Z,29.15
2022-08-10T13:51:56.422Z,28.27
2022-08-10T13:54:29.121Z,28.84
2022-08-10T13:56:56.744Z,27.50
2022-08-10T14:00:34.427Z,28.24
2022-08-10T14:02:22.853Z,27.85
2022-08-10T14:04:50.204Z,28.26
2022-08-10T14:07:18.164Z,28.36
2022-08-10T14:09:47.585Z,28.14
2022-08-10T14:12:15.170Z,28.90
2022-08-10T14:14:44.709Z,29.32
2022-08-10T14:17:22.037Z,28.53
2022-08-10T14:19:58.983Z,28.79
2022-08-10T14:22:33.994Z,29.37
2022-08-10T14:25:12.549Z,29.08
2022-08-10T14:28:03.516Z,28.96
2022-08-10T14:30:32.003Z,28.86
2022-08-10T14:33:04.071Z,29.35
2022-08-10T14:36:20.081Z,28.68
2022-08-10T14:38:23.893Z,28.17
2022-08-10T14:40:53.656Z,27.55
2022-08-10T14:43:54.165Z,26.98
2022-08-10T14:46:24.235Z,27.33
2022-08-10T14:48:54.189Z,27.50
2022-08-10T14:51:27.082Z,27.91
2022-08-10T14:54:15.836Z,28.36
2022-08-10T14:56:48.877Z,28.29
2022-08-10T14:59:17.619Z,28.13
2022-08-10T15:01:59.773Z,28.13
2022-08-10T15:04:35.464Z,28.02
2022-08-10T15:07:12.686Z,28.11
2022-08-10T15:10:01.462Z,28.23
2022-08-10T15:12:38.602Z,28.50
2022-08-10T15:15:09.465Z,28.22
2022-08-10T15:17:40.554Z,28.10
2022-08-10T15:20:20.942Z,28.26
2022-08-10T15:23:06.717Z,27.86
2022-08-10T15:25:38.987Z,28.25
2022-08-10T15:28:10.461Z,27.83
2022-08-10T15:30:46.230Z,27.91
2022-08-10T15:34:03.497Z,28.23
2022-08-10T15:36:47.150Z,27.73
2022-08-10T15:40:24.617Z,27.55
2022-08-10T15:42:23.695Z,27.51
2022-08-10T15:44:53.513Z,28.09
2022-08-10T15:47:25.085Z,27.47
2022-08-10T15:50:03.513Z,27.51
2022-08-10T15:53:01.299Z,27.77
2022-08-10T15:55:42.306Z,27.62
2022-08-10T15:58:20.347Z,27.21
2022-08-10T16:02:13.608Z,27.38
2022-08-10T16:04:19.788Z,27.07
2022-08-10T16:07:07.887Z,26.66
2022-08-10T16:10:24.332Z,26.97
2022-08-10T16:12:32.567Z,26.92
2022-08-10T16:15:08.108Z,26.71
2022-08-10T16:17:55.558Z,27.02
2022-08-10T16:20:31.378Z,26.68
2022-08-10T16:23:04.461Z,26.56
2022-08-10T16:25:48.605Z,26.50
2022-08-10T16:28:23.029Z,26.42
2022-08-10T16:30:54.294Z,26.53
2022-08-10T16:33:27.579Z,26.81
2022-08-10T16:36:16.143Z,26.18
2022-08-10T16:38:45.240Z,26.36
2022-08-10T16:42:02.711Z,26.14
2022-08-10T16:44:01.147Z,26.19
2022-08-10T16:46:29.079Z,26.12
2022-08-10T16:48:59.000Z,26.14
2022-08-10T16:51:26.596Z,26.14
2022-08-10T16:53:54.011Z,25.76
2022-08-10T16:56:30.024Z,25.56
2022-08-10T16:58:57.478Z,25.71
2022-08-10T17:01:27.275Z,25.45
2022-08-10T17:04:09.615Z,25.45
2022-08-10T17:06:42.323Z,25.22
2022-08-10T17:09:16.961Z,25.49
2022-08-10T17:11:48.907Z,25.32
2022-08-10T17:14:15.907Z,25.19
2022-08-10T17:16:44.964Z,24.86
2022-08-10T17:19:18.386Z,24.89
2022-08-10T17:21:52.137Z,24.81
2022-08-10T17:24:22.943Z,24.96
2022-08-10T17:26:51.068Z,24.80
2022-08-10T17:29:58.142Z,24.70
2022-08-10T17:32:19.738Z,24.58
2022-08-10T17:34:51.661Z,24.89
2022-08-10T17:37:22.205Z,24.74
2022-08-10T17:40:00.903Z,24.76
2022-08-10T17:42:28.205Z,24.56
2022-08-10T17:44:55.631Z,24.90
2022-08-10T17:47:27.073Z,24.58
2022-08-10T17:49:58.896Z,24.58
2022-08-10T17:52:31.578Z,24.74
2022-08-10T17:55:08.703Z,24.39
2022-08-10T17:57:40.393Z,24.24
2022-08-10T18:00:18.862Z,24.13
2022-08-10T18:02:49.044Z,24.15
2022-08-10T18:05:16.671Z,24.31
2022-08-10T18:07:50.481Z,23.98
2022-08-10T18:10:20.769Z,24.03
2022-08-10T18:12:54.726Z,23.78
2022-08-10T18:15:26.657Z,23.78
2022-08-10T18:17:59.446Z,23.63
2022-08-10T18:20:35.606Z,23.67
2022-08-10T18:23:03.765Z,23.57
2022-08-10T18:25:37.218Z,23.61
2022-08-10T18:28:06.775Z,23.46
2022-08-10T18:30:45.956Z,23.32
2022-08-10T18:33:14.420Z,23.21
2022-08-10T18:35:43.725Z,23.12
2022-08-10T18:38:12.765Z,22.91
2022-08-10T18:40:43.149Z,22.60
2022-08-10T18:44:07.554Z,22.60
2022-08-10T18:46:00.268Z,22.24
2022-08-10T18:48:37.063Z,22.01
2022-08-10T18:51:06.573Z,21.82
2022-08-10T18:53:38.329Z,21.76
2022-08-10T18:56:32.012Z,21.90
2022-08-10T18:59:13.661Z,21.78
2022-08-10T19:02:03.183Z,21.69
2022-08-10T19:04:51.130Z,21.53
2022-08-10T19:07:32.735Z,21.32
2022-08-10T19:10:40.424Z,20.92
2022-08-10T19:13:19.136Z,20.95
2022-08-10T19:15:58.345Z,20.94
2022-08-10T19:18:33.088Z,20.84
2022-08-10T19:21:28.523Z,20.84
2022-08-10T19:24:04.653Z,20.74
2022-08-10T19:27:03.715Z,20.64
2022-08-10T19:30:05.104Z,20.59
2022-08-10T19:32:52.173Z,20.63
2022-08-10T19:36:03.122Z,20.68
2022-08-10T19:38:43.907Z,20.91
2022-08-10T19:41:17.090Z,21.04
2022-08-10T19:44:01.195Z,21.14
2022-08-10T19:46:43.615Z,21.15
2022-08-10T19:49:23.124Z,21.05
2022-08-10T19:52:13.745Z,20.99
2022-08-10T19:55:02.165Z,21.00
2022-08-10T19:57:31.782Z,20.80
2022-08-10T20:00:19.196Z,20.73
2022-08-10T20:02:47.774Z,20.65
2022-08-10T20:05:27.997Z,20.52
2022-08-10T20:08:02.520Z,20.39
2022-08-10T20:10:35.535Z,20.37
2022-08-10T20:13:12.768Z,20.28
2022-08-10T20:15:47.525Z,20.11
2022-08-10T20:18:24.382Z,19.88
2022-08-10T20:21:05.465Z,19.79
2022-08-10T20:23:40.859Z,19.68
2022-08-10T20:26:22.861Z,19.61
2022-08-10T20:29:05.354Z,19.56
2022-08-10T20:31:37.226Z,19.40
2022-08-10T20:34:32.665Z,19.36
2022-08-10T20:37:06.005Z,19.26
2022-08-10T20:39:32.479Z,19.13
2022-08-10T20:42:18.003Z,19.09
2022-08-10T20:45:07.487Z,19.22
2022-08-10T20:47:54.035Z,19.26
2022-08-10T20:50:27.369Z,19.22
2022-08-10T20:52:55.890Z,19.19
2022-08-10T20:55:27.320Z,19.24
2022-08-10T20:58:07.518Z,19.16
2022-08-10T21:00:58.218Z,19.06
2022-08-10T21:03:58.714Z,18.99
2022-08-10T21:06:56.203Z,18.83
2022-08-10T21:09:44.257Z,18.80
2022-08-10T21:12:44.204Z,18.74
2022-08-10T21:15:26.421Z,18.66
2022-08-10T21:18:20.462Z,18.57
2022-08-10T21:21:09.132Z,18.44
2022-08-10T21:23:48.214Z,18.45
2022-08-10T21:26:19.648Z,18.39
2022-08-10T21:29:37.817Z,18.38
2022-08-10T21:32:23.653Z,18.39
2022-08-10T21:35:07.446Z,18.20
2022-08-10T21:37:56.603Z,18.20
2022-08-10T21:41:19.038Z,18.20
2022-08-10T21:44:32.364Z,18.03
2022-08-10T21:48:07.250Z,17.93
2022-08-10T21:51:05.918Z,17.78
2022-08-10T21:54:08.560Z,17.80
2022-08-10T21:57:01.035Z,17.68
2022-08-10T22:02:50.778Z,17.56
2022-08-10T22:05:44.939Z,17.47
2022-08-10T22:08:35.903Z,17.39
2022-08-10T22:11:23.658Z,17.33
2022-08-10T22:14:09.992Z,17.29
2022-08-10T22:17:01.725Z,17.33
2022-08-10T22:19:54.137Z,17.18
2022-08-10T22:22:56.501Z,17.22
2022-08-10T22:25:52.165Z,17.20
2022-08-10T22:28:37.744Z,17.12
2022-08-10T22:31:51.035Z,17.09
2022-08-10T22:34:51.374Z,17.06
2022-08-10T22:37:55.009Z,17.00
2022-08-10T22:40:42.285Z,16.88
2022-08-10T22:43:37.675Z,16.84
2022-08-10T22:46:32.551Z,16.83
2022-08-10T22:49:02.323Z,16.76
2022-08-10T22:51:50.996Z,16.72
2022-08-10T22:54:45.028Z,16.70
2022-08-10T22:57:32.627Z,16.63
2022-08-10T23:00:14.649Z,16.57
2022-08-10T23:02:50.428Z,16.54
2022-08-10T23:05:27.889Z,16.47
2022-08-10T23:08:01.935Z,16.50
2022-08-10T23:10:36.900Z,16.43
2022-08-10T23:13:24.357Z,16.38
2022-08-10T23:16:23.213Z,16.31
2022-08-10T23:19:10.908Z,16.25
2022-08-10T23:22:03.761Z,16.24
2022-08-10T23:24:41.772Z,16.25
2022-08-10T23:27:12.280Z,16.21
2022-08-10T23:30:10.165Z,16.22
2022-08-10T23:32:44.821Z,16.15
2022-08-10T23:36:08.834Z,16.11
2022-08-10T23:38:06.287Z,16.16
2022-08-10T23:40:34.093Z,16.09
2022-08-10T23:43:02.145Z,15.96
2022-08-10T23:45:52.681Z,16.00
2022-08-10T23:48:21.298Z,15.93
2022-08-10T23:50:59.344Z,15.94
2022-08-10T23:53:30.354Z,15.94
2022-08-10T23:56:21.088Z,15.81
2022-08-10T23:58:52.598Z,15.79
